KAIG

Langlade County Airport

Antigo, Wisconsin, USA
METAR KAIG 180835Z AUTO 27006KT 3/4SM BR OVC002 M04/M04 A2985 RMK AO2 T10411041
Observed Flight Rules
Dec-18 @ 08:35 UTC (22 minutes ago) Instrument Flight Rules
Wind Visibility Clouds Conditions
270° at 6 knots 3/4 miles
  • Overcast at 200' AGL
  • Mist
Temperatures Readings
Current -4°C / 25°F
Dewpoint -4°C / 25°F
Humidity 100%
Altimeter 29.85" Hg
Pressure 1011 hPa
Elevation 464
METAR KAIG 180835Z AUTO 27006KT 3/4SM BR OVC002 M04/M04 A2985 RMK AO2 T10411041
Observed Flight Rules
Dec-18 @ 08:35 UTC
(22 minutes ago)
LIFR
Wind Visibility
270° at 6 knots 3/4 miles
Clouds
  • Overcast at 200' AGL
Conditions
  • Mist
Temperature Dewpoint
-4°C / 25°F -4°C / 25°F
Humidity Altimeter Pressure
100% 29.85" Hg 1011 hPa